createdAt,value
2018-09-08T00:02:00.911Z,83.52
2018-09-08T00:04:30.007Z,84.93
2018-09-08T00:07:04.232Z,84.74
2018-09-08T00:09:33.031Z,84.76
2018-09-08T00:12:02.603Z,85.50
2018-09-08T00:14:31.504Z,86.15
2018-09-08T00:17:05.476Z,87.09
2018-09-08T00:19:39.729Z,85.79
2018-09-08T00:22:13.733Z,87.87
2018-09-08T00:24:47.961Z,87.10
2018-09-08T00:27:21.205Z,87.31
2018-09-08T00:29:51.160Z,86.61
2018-09-08T00:32:21.348Z,88.29
2018-09-08T00:34:50.786Z,87.39
2018-09-08T00:37:19.792Z,87.83
2018-09-08T00:39:51.807Z,87.79
2018-09-08T00:42:20.904Z,88.88
2018-09-08T00:44:49.742Z,88.46
2018-09-08T00:47:18.792Z,88.41
2018-09-08T00:49:47.681Z,89.51
2018-09-08T00:52:16.608Z,90.17
2018-09-08T00:54:45.508Z,91.31
2018-09-08T00:57:14.455Z,90.59
2018-09-08T00:59:43.292Z,89.43
2018-09-08T01:02:12.378Z,89.63
2018-09-08T01:04:41.677Z,90.34
2018-09-08T01:07:16.097Z,90.63
2018-09-08T01:09:44.872Z,91.14
2018-09-08T01:12:13.983Z,91.68
2018-09-08T01:14:42.741Z,92.96
2018-09-08T01:17:11.601Z,93.21
2018-09-08T01:19:40.448Z,93.59
2018-09-08T01:22:09.307Z,93.15
2018-09-08T01:24:38.224Z,92.26
2018-09-08T01:27:07.152Z,92.14
2018-09-08T01:29:36.388Z,92.77
2018-09-08T01:32:05.323Z,94.09
2018-09-08T01:34:34.646Z,94.13
2018-09-08T01:37:03.364Z,93.15
2018-09-08T01:39:32.712Z,93.55
2018-09-08T01:42:01.791Z,94.92
2018-09-08T01:44:30.660Z,95.44
2018-09-08T01:46:59.780Z,95.17
2018-09-08T01:49:28.676Z,95.39
2018-09-08T01:51:57.532Z,95.41
2018-09-08T01:54:26.668Z,95.66
2018-09-08T01:56:55.476Z,95.27
2018-09-08T01:59:24.385Z,95.11
2018-09-08T02:01:53.752Z,95.22
2018-09-08T02:04:22.947Z,95.65
2018-09-08T02:06:52.145Z,94.80
2018-09-08T02:09:21.268Z,95.71
2018-09-08T02:11:50.076Z,95.61
2018-09-08T02:14:19.185Z,95.31
2018-09-08T02:16:48.415Z,96.52
2018-09-08T02:19:17.256Z,96.56
2018-09-08T02:21:46.041Z,98.01
2018-09-08T02:24:14.985Z,97.79
2018-09-08T02:26:43.872Z,97.75
2018-09-08T02:29:12.765Z,98.50
2018-09-08T02:31:41.666Z,98.60
2018-09-08T02:34:10.544Z,99.38
2018-09-08T02:36:39.687Z,100.00
2018-09-08T02:39:10.031Z,100.00
2018-09-08T02:41:39.124Z,100.00
2018-09-08T02:44:08.034Z,100.00
2018-09-08T02:46:37.059Z,100.00
2018-09-08T02:49:06.255Z,100.00
2018-09-08T02:51:33.808Z,100.00
2018-09-08T02:54:01.375Z,100.00
2018-09-08T02:56:29.140Z,100.00
2018-09-08T02:58:56.802Z,100.00
2018-09-08T03:01:24.417Z,100.00
2018-09-08T03:03:52.043Z,100.00
2018-09-08T03:06:20.191Z,100.00
2018-09-08T03:08:47.859Z,100.00
2018-09-08T03:11:15.546Z,100.00
2018-09-08T03:13:43.387Z,100.00
2018-09-08T03:16:11.228Z,100.00
2018-09-08T03:18:38.907Z,100.00
2018-09-08T03:21:06.708Z,100.00
2018-09-08T03:23:34.444Z,100.00
2018-09-08T03:26:02.102Z,100.00
2018-09-08T03:28:30.176Z,100.00
2018-09-08T03:30:57.828Z,100.00
2018-09-08T03:33:25.502Z,100.00
2018-09-08T03:35:53.112Z,100.00
2018-09-08T03:38:20.732Z,100.00
2018-09-08T03:40:48.488Z,100.00
2018-09-08T03:43:16.052Z,100.00
2018-09-08T03:45:43.560Z,100.00
2018-09-08T03:48:11.180Z,100.00
2018-09-08T03:50:38.684Z,100.00
2018-09-08T03:53:06.305Z,100.00
2018-09-08T03:55:33.812Z,100.00
2018-09-08T03:58:01.492Z,100.00
2018-09-08T04:06:21.640Z,100.00
2018-09-08T04:08:50.514Z,100.00
2018-09-08T04:11:19.636Z,100.00
2018-09-08T04:13:48.700Z,100.00
2018-09-08T04:16:17.516Z,100.00
2018-09-08T04:18:46.144Z,100.00
2018-09-08T04:21:14.917Z,100.00
2018-09-08T04:23:43.813Z,100.00
2018-09-08T04:26:12.844Z,100.00
2018-09-08T04:28:41.639Z,100.00
2018-09-08T04:31:10.563Z,100.00
2018-09-08T04:33:39.426Z,100.00
2018-09-08T04:36:08.234Z,100.00
2018-09-08T04:38:37.155Z,100.00
2018-09-08T04:41:06.357Z,100.00
2018-09-08T04:43:35.072Z,100.00
2018-09-08T04:46:03.917Z,100.00
2018-09-08T04:48:32.754Z,100.00
2018-09-08T04:51:01.581Z,100.00
2018-09-08T04:53:30.840Z,100.00
2018-09-08T04:55:59.944Z,100.00
2018-09-08T04:58:29.040Z,100.00
2018-09-08T05:00:57.941Z,100.00
2018-09-08T05:03:27.212Z,100.00
2018-09-08T05:05:56.272Z,100.00
2018-09-08T05:08:25.588Z,100.00
2018-09-08T05:10:54.517Z,100.00
2018-09-08T05:13:23.413Z,100.00
2018-09-08T05:15:52.509Z,100.00
2018-09-08T05:18:21.816Z,100.00
2018-09-08T05:20:57.516Z,100.00
2018-09-08T05:23:29.454Z,100.00
2018-09-08T05:25:58.680Z,100.00
2018-09-08T05:28:27.554Z,100.00
2018-09-08T05:30:56.906Z,100.00
2018-09-08T05:33:26.281Z,100.00
2018-09-08T05:35:55.731Z,100.00
2018-09-08T05:38:24.599Z,100.00
2018-09-08T05:40:53.708Z,100.00
2018-09-08T05:43:23.518Z,100.00
2018-09-08T05:45:52.562Z,100.00
2018-09-08T05:48:21.727Z,100.00
2018-09-08T05:50:50.619Z,100.00
2018-09-08T05:53:19.578Z,100.00
2018-09-08T05:55:49.762Z,100.00
2018-09-08T05:58:18.826Z,100.00
2018-09-08T06:00:47.721Z,100.00
2018-09-08T06:03:16.744Z,100.00
2018-09-08T06:05:45.624Z,100.00
2018-09-08T06:08:14.454Z,99.77
2018-09-08T06:10:43.223Z,98.57
2018-09-08T06:13:12.156Z,97.40
2018-09-08T06:15:41.013Z,96.37
2018-09-08T06:18:10.350Z,94.87
2018-09-08T06:20:39.164Z,96.51
2018-09-08T06:23:08.130Z,91.41
2018-09-08T06:25:37.048Z,89.22
2018-09-08T06:28:06.102Z,88.70
2018-09-08T06:30:34.975Z,87.68
2018-09-08T06:33:03.857Z,86.67
2018-09-08T06:35:32.704Z,86.52
2018-09-08T06:38:01.676Z,86.16
2018-09-08T06:40:30.462Z,85.47
2018-09-08T06:42:59.258Z,83.72
2018-09-08T06:45:28.127Z,82.80
2018-09-08T06:47:57.215Z,81.26
2018-09-08T06:50:26.429Z,81.41
2018-09-08T06:52:55.183Z,80.25
2018-09-08T06:55:23.975Z,79.34
2018-09-08T06:57:52.940Z,78.30
2018-09-08T07:00:21.782Z,75.43
2018-09-08T07:02:50.671Z,75.88
2018-09-08T07:05:19.595Z,75.43
2018-09-08T07:07:48.414Z,74.96
2018-09-08T07:10:17.355Z,73.68
2018-09-08T07:12:46.246Z,72.00
2018-09-08T07:15:15.181Z,69.14
2018-09-08T07:17:43.982Z,67.33
2018-09-08T07:20:12.848Z,66.93
2018-09-08T07:22:41.693Z,66.46
2018-09-08T07:25:11.161Z,65.17
2018-09-08T07:27:40.003Z,64.85
2018-09-08T07:30:08.854Z,63.79
2018-09-08T07:32:37.941Z,63.06
2018-09-08T07:35:06.893Z,62.94
2018-09-08T07:37:35.935Z,61.64
2018-09-08T07:40:05.477Z,57.99
2018-09-08T07:42:34.426Z,56.67
2018-09-08T07:45:03.464Z,56.17
2018-09-08T07:47:32.290Z,54.83
2018-09-08T07:50:01.233Z,54.69
2018-09-08T07:52:30.052Z,54.10
2018-09-08T07:54:59.216Z,53.47
2018-09-08T07:57:28.041Z,55.25
2018-09-08T07:59:56.802Z,51.85
2018-09-08T08:02:25.755Z,52.03
2018-09-08T08:04:54.452Z,52.12
2018-09-08T08:07:23.206Z,51.05
2018-09-08T08:09:52.065Z,50.01
2018-09-08T08:12:21.316Z,50.67
2018-09-08T08:14:50.078Z,50.50
2018-09-08T08:17:18.825Z,51.32
2018-09-08T08:19:47.943Z,50.17
2018-09-08T08:22:17.030Z,50.11
2018-09-08T08:24:46.338Z,49.71
2018-09-08T08:27:15.191Z,49.87
2018-09-08T08:29:44.020Z,51.10
2018-09-08T08:32:12.730Z,50.46
2018-09-08T08:34:41.686Z,51.10
2018-09-08T08:37:10.612Z,50.69
2018-09-08T08:39:39.467Z,51.28
2018-09-08T08:42:09.561Z,51.18
2018-09-08T08:44:38.681Z,50.64
2018-09-08T08:47:07.497Z,51.38
2018-09-08T08:49:36.361Z,51.23
2018-09-08T08:52:16.157Z,51.33
2018-09-08T08:54:48.011Z,51.56
2018-09-08T08:57:17.160Z,51.69
2018-09-08T08:59:45.852Z,51.22
2018-09-08T09:02:14.834Z,51.29
2018-09-08T09:04:43.735Z,51.51
2018-09-08T09:07:14.235Z,50.89
2018-09-08T09:09:43.909Z,51.56
2018-09-08T09:12:12.864Z,51.35
2018-09-08T09:14:41.659Z,50.88
2018-09-08T09:17:10.632Z,50.76
2018-09-08T09:19:50.659Z,51.00
2018-09-08T09:22:30.773Z,50.82
2018-09-08T09:25:08.849Z,50.39
2018-09-08T09:27:46.707Z,50.61
2018-09-08T09:30:16.311Z,50.15
2018-09-08T09:32:45.725Z,49.91
2018-09-08T09:35:16.945Z,50.08
2018-09-08T09:37:45.689Z,49.50
2018-09-08T09:40:15.558Z,48.91
2018-09-08T09:42:44.711Z,49.21
2018-09-08T09:45:13.755Z,49.08
2018-09-08T09:47:42.592Z,47.99
2018-09-08T09:50:12.658Z,48.43
2018-09-08T09:52:41.846Z,47.96
2018-09-08T09:55:11.299Z,48.16
2018-09-08T09:57:40.236Z,47.56
2018-09-08T10:00:11.497Z,48.58
2018-09-08T10:02:41.160Z,48.14
2018-09-08T10:05:12.996Z,47.58
2018-09-08T10:07:42.055Z,47.47
2018-09-08T10:10:15.217Z,46.51
2018-09-08T10:12:44.298Z,47.13
2018-09-08T10:15:13.107Z,46.52
2018-09-08T10:17:48.618Z,46.12
2018-09-08T10:20:20.335Z,46.12
2018-09-08T10:22:49.180Z,46.26
2018-09-08T10:25:19.870Z,45.93
2018-09-08T10:27:49.272Z,45.20
2018-09-08T10:30:18.553Z,45.04
2018-09-08T10:32:47.864Z,44.87
2018-09-08T10:35:16.871Z,44.43
2018-09-08T10:37:45.780Z,45.71
2018-09-08T10:40:14.840Z,45.52
2018-09-08T10:42:44.257Z,45.52
2018-09-08T10:45:13.198Z,45.11
2018-09-08T10:47:42.280Z,44.55
2018-09-08T10:50:11.711Z,44.47
2018-09-08T10:52:44.836Z,43.91
2018-09-08T10:55:13.523Z,43.58
2018-09-08T10:57:42.547Z,42.80
2018-09-08T11:00:12.463Z,44.46
2018-09-08T11:02:41.678Z,44.81
2018-09-08T11:05:10.423Z,43.63
2018-09-08T11:07:39.747Z,40.64
2018-09-08T11:10:08.789Z,38.43
2018-09-08T11:12:37.781Z,36.86
2018-09-08T11:15:08.155Z,35.50
2018-09-08T11:17:36.877Z,34.56
2018-09-08T11:20:06.901Z,35.76
2018-09-08T11:22:36.175Z,39.89
2018-09-08T11:25:04.880Z,36.83
2018-09-08T11:27:33.682Z,35.18
2018-09-08T11:30:04.389Z,32.68
2018-09-08T11:32:34.816Z,34.59
2018-09-08T11:35:05.796Z,32.57
2018-09-08T11:37:34.785Z,34.65
2018-09-08T11:40:03.662Z,32.90
2018-09-08T11:42:36.189Z,32.55
2018-09-08T11:45:05.430Z,31.94
2018-09-08T11:47:34.079Z,35.88
2018-09-08T11:50:03.181Z,36.49
2018-09-08T11:52:32.513Z,34.22
2018-09-08T11:55:01.831Z,33.43
2018-09-08T11:57:31.282Z,30.78
2018-09-08T12:00:00.147Z,31.81
2018-09-08T12:02:29.078Z,32.84
2018-09-08T12:04:58.127Z,30.48
2018-09-08T12:07:27.144Z,31.17
2018-09-08T12:09:55.853Z,31.99
2018-09-08T12:12:24.879Z,29.21
2018-09-08T12:14:54.315Z,27.81
2018-09-08T12:17:24.032Z,28.29
2018-09-08T12:19:52.946Z,28.87
2018-09-08T12:22:22.032Z,28.41
2018-09-08T12:24:50.924Z,33.98
2018-09-08T12:27:19.811Z,30.38
2018-09-08T12:29:48.704Z,30.25
2018-09-08T12:32:17.572Z,29.66
2018-09-08T12:34:46.487Z,29.85
2018-09-08T12:37:15.927Z,29.19
2018-09-08T12:39:45.078Z,28.39
2018-09-08T12:42:14.919Z,26.29
2018-09-08T12:44:43.868Z,26.49
2018-09-08T12:47:12.978Z,25.82
2018-09-08T12:49:42.094Z,26.51
2018-09-08T12:52:10.987Z,25.18
2018-09-08T12:54:39.868Z,24.50
2018-09-08T12:57:09.142Z,27.06
2018-09-08T12:59:38.256Z,31.30
2018-09-08T13:02:07.320Z,26.04
2018-09-08T13:04:36.848Z,23.70
2018-09-08T13:07:05.935Z,24.48
2018-09-08T13:09:34.743Z,24.12
2018-09-08T13:12:03.749Z,25.09
2018-09-08T13:14:32.996Z,26.93
2018-09-08T13:17:05.972Z,23.36
2018-09-08T13:19:48.032Z,24.22
2018-09-08T13:22:21.831Z,24.49
2018-09-08T13:24:51.321Z,22.53
2018-09-08T13:27:20.238Z,22.89
2018-09-08T13:30:01.694Z,23.37
2018-09-08T13:32:33.368Z,22.28
2018-09-08T13:35:03.247Z,23.42
2018-09-08T13:37:32.489Z,23.33
2018-09-08T13:40:02.022Z,25.89
2018-09-08T13:42:30.736Z,27.44
2018-09-08T13:44:59.573Z,31.74
2018-09-08T13:47:28.614Z,31.99
2018-09-08T13:49:57.711Z,34.41
2018-09-08T13:52:26.730Z,36.27
2018-09-08T13:54:55.672Z,37.41
2018-09-08T13:57:24.641Z,36.49
2018-09-08T13:59:53.399Z,38.99
2018-09-08T14:02:22.321Z,38.75
2018-09-08T14:04:51.197Z,39.99
2018-09-08T14:07:20.921Z,38.17
2018-09-08T14:09:50.016Z,37.92
2018-09-08T14:12:18.792Z,36.73
2018-09-08T14:14:47.588Z,38.29
2018-09-08T14:17:16.467Z,38.37
2018-09-08T14:19:45.360Z,37.94
2018-09-08T14:22:14.253Z,38.53
2018-09-08T14:24:43.153Z,38.71
2018-09-08T14:27:12.443Z,37.68
2018-09-08T14:29:41.168Z,38.88
2018-09-08T14:32:10.263Z,39.36
2018-09-08T14:34:39.054Z,39.43
2018-09-08T14:37:07.968Z,39.08
2018-09-08T14:39:37.304Z,39.46
2018-09-08T14:42:06.416Z,36.79
2018-09-08T14:44:35.170Z,36.96
2018-09-08T14:47:03.936Z,37.42
2018-09-08T14:49:32.927Z,37.87
2018-09-08T14:52:01.939Z,38.36
2018-09-08T14:54:30.713Z,38.96
2018-09-08T14:57:00.031Z,37.99
2018-09-08T14:59:28.854Z,38.77
2018-09-08T15:01:57.833Z,38.99
2018-09-08T15:04:33.304Z,40.28
2018-09-08T15:07:02.249Z,40.05
2018-09-08T15:09:31.264Z,39.18
2018-09-08T15:12:00.155Z,39.95
2018-09-08T15:14:28.931Z,40.59
2018-09-08T15:16:58.360Z,42.52
2018-09-08T15:19:27.174Z,42.80
2018-09-08T15:21:56.128Z,42.36
2018-09-08T15:24:25.271Z,41.75
2018-09-08T15:26:54.286Z,41.89
2018-09-08T15:29:23.361Z,42.39
2018-09-08T15:31:52.213Z,42.27
2018-09-08T15:34:21.092Z,42.19
2018-09-08T15:36:53.448Z,41.18
2018-09-08T15:39:24.425Z,41.84
2018-09-08T15:41:54.961Z,41.65
2018-09-08T15:44:24.447Z,43.08
2018-09-08T15:46:54.063Z,41.26
2018-09-08T15:49:23.619Z,41.71
2018-09-08T15:51:53.788Z,41.43
2018-09-08T15:54:22.732Z,42.23
2018-09-08T15:56:51.721Z,42.77
2018-09-08T15:59:20.637Z,43.72
2018-09-08T16:01:49.963Z,45.25
2018-09-08T16:04:21.768Z,43.14
2018-09-08T16:06:50.545Z,42.60
2018-09-08T16:09:19.371Z,41.52
2018-09-08T16:11:48.284Z,42.21
2018-09-08T16:14:17.226Z,41.33
2018-09-08T16:16:46.244Z,40.43
2018-09-08T16:19:15.434Z,41.16
2018-09-08T16:21:44.363Z,42.96
2018-09-08T16:24:13.635Z,44.39
2018-09-08T16:26:42.535Z,41.34
2018-09-08T16:29:11.658Z,43.21
2018-09-08T16:31:41.113Z,44.71
2018-09-08T16:34:10.420Z,45.30
2018-09-08T16:36:39.376Z,46.18
2018-09-08T16:39:10.516Z,47.60
2018-09-08T16:41:39.432Z,47.79
2018-09-08T16:44:08.930Z,49.12
2018-09-08T16:46:37.654Z,49.15
2018-09-08T16:49:06.808Z,49.08
2018-09-08T16:51:36.379Z,50.12
2018-09-08T16:54:05.272Z,47.15
2018-09-08T16:56:34.131Z,49.38
2018-09-08T16:59:02.999Z,49.21
2018-09-08T17:01:31.860Z,49.87
2018-09-08T17:04:00.832Z,51.25
2018-09-08T17:06:29.709Z,52.01
2018-09-08T17:08:58.387Z,54.62
2018-09-08T17:11:27.232Z,54.48
2018-09-08T17:13:55.984Z,53.94
2018-09-08T17:16:25.286Z,53.52
2018-09-08T17:18:54.160Z,54.09
2018-09-08T17:21:23.255Z,55.05
2018-09-08T17:23:52.160Z,55.38
2018-09-08T17:26:21.069Z,56.35
2018-09-08T17:28:49.877Z,58.31
2018-09-08T17:31:18.817Z,58.59
2018-09-08T17:33:47.800Z,58.30
2018-09-08T17:36:16.736Z,59.32
2018-09-08T17:38:45.659Z,60.66
2018-09-08T17:41:14.581Z,60.73
2018-09-08T17:43:43.491Z,61.06
2018-09-08T17:46:12.381Z,60.76
2018-09-08T17:48:41.258Z,63.80
2018-09-08T17:51:10.069Z,63.59
2018-09-08T17:53:38.985Z,61.81
2018-09-08T17:56:08.288Z,62.09
2018-09-08T17:58:37.234Z,62.66
2018-09-08T18:01:06.381Z,63.60
2018-09-08T18:03:35.106Z,64.82
2018-09-08T18:06:03.936Z,65.23
2018-09-08T18:08:32.672Z,65.74
2018-09-08T18:11:01.483Z,65.26
2018-09-08T18:13:30.295Z,64.70
2018-09-08T18:15:59.718Z,65.15
2018-09-08T18:18:28.725Z,65.87
2018-09-08T18:20:57.595Z,66.78
2018-09-08T18:23:26.969Z,67.28
2018-09-08T18:25:56.052Z,66.98
2018-09-08T18:28:26.462Z,68.45
2018-09-08T18:30:58.239Z,68.64
2018-09-08T18:33:28.348Z,70.13
2018-09-08T18:36:00.046Z,70.34
2018-09-08T18:38:42.347Z,71.17
2018-09-08T18:41:16.124Z,71.53
2018-09-08T18:43:46.257Z,71.65
2018-09-08T18:46:16.480Z,71.63
2018-09-08T18:48:45.400Z,72.20
2018-09-08T18:51:14.700Z,72.44
2018-09-08T18:53:43.464Z,71.95
2018-09-08T18:56:12.288Z,72.02
2018-09-08T18:58:41.339Z,72.95
2018-09-08T19:01:10.222Z,74.37
2018-09-08T19:03:39.111Z,75.02
2018-09-08T19:06:07.971Z,76.81
2018-09-08T19:08:44.068Z,76.02
2018-09-08T19:11:14.045Z,75.59
2018-09-08T19:13:43.692Z,75.57
2018-09-08T19:16:13.813Z,77.15
2018-09-08T19:18:42.552Z,77.73
2018-09-08T19:21:12.221Z,78.15
2018-09-08T19:23:41.108Z,78.47
2018-09-08T19:26:10.188Z,77.12
2018-09-08T19:28:39.062Z,77.66
2018-09-08T19:31:08.182Z,77.69
2018-09-08T19:33:37.678Z,78.52
2018-09-08T19:36:07.298Z,78.68
2018-09-08T19:38:37.564Z,79.59
2018-09-08T19:41:06.517Z,80.43
2018-09-08T19:43:35.281Z,80.62
2018-09-08T19:46:08.136Z,80.86
2018-09-08T19:48:36.891Z,81.08
2018-09-08T19:51:06.221Z,81.53
2018-09-08T19:53:40.300Z,82.12
2018-09-08T19:56:09.040Z,81.99
2018-09-08T19:58:42.979Z,82.20
2018-09-08T20:01:11.916Z,82.80
2018-09-08T20:03:40.924Z,83.37
2018-09-08T20:06:09.638Z,83.75
2018-09-08T20:08:38.256Z,84.44
2018-09-08T20:11:11.023Z,84.24
2018-09-08T20:13:43.671Z,84.09
2018-09-08T20:16:12.369Z,84.32
2018-09-08T20:18:41.056Z,84.36
2018-09-08T20:21:09.817Z,85.24
2018-09-08T20:23:38.455Z,85.27
2018-09-08T20:26:07.941Z,85.03
2018-09-08T20:28:37.132Z,85.35
2018-09-08T20:31:06.223Z,84.96
2018-09-08T20:33:36.151Z,85.58
2018-09-08T20:36:05.560Z,86.06
2018-09-08T20:38:34.495Z,86.95
2018-09-08T20:41:03.454Z,86.42
2018-09-08T20:43:32.304Z,84.81
2018-09-08T20:46:01.835Z,85.51
2018-09-08T20:48:30.722Z,84.76
2018-09-08T20:50:59.532Z,84.95
2018-09-08T20:53:28.711Z,85.19
2018-09-08T20:55:57.600Z,85.42
2018-09-08T20:58:26.690Z,85.73
2018-09-08T21:00:55.781Z,85.53
2018-09-08T21:03:24.684Z,85.30
2018-09-08T21:05:53.814Z,85.62
2018-09-08T21:08:22.671Z,85.52
2018-09-08T21:10:51.483Z,85.86
2018-09-08T21:13:20.336Z,85.62
2018-09-08T21:15:49.343Z,84.93
2018-09-08T21:18:18.148Z,85.66
2018-09-08T21:20:46.915Z,85.29
2018-09-08T21:23:15.670Z,84.90
2018-09-08T21:25:45.109Z,85.42
2018-09-08T21:28:13.987Z,85.40
2018-09-08T21:30:43.049Z,86.61
2018-09-08T21:33:11.877Z,86.26
2018-09-08T21:35:40.592Z,86.62
2018-09-08T21:38:09.563Z,86.27
2018-09-08T21:40:38.448Z,86.54
2018-09-08T21:43:07.337Z,86.93
2018-09-08T21:45:36.400Z,86.83
2018-09-08T21:48:05.257Z,87.31
2018-09-08T21:50:34.012Z,87.29
2018-09-08T21:53:02.897Z,87.76
2018-09-08T21:55:31.897Z,88.66
2018-09-08T21:58:00.588Z,87.83
2018-09-08T22:00:29.361Z,87.91
2018-09-08T22:02:58.304Z,88.41
2018-09-08T22:05:27.291Z,89.24
2018-09-08T22:07:55.987Z,90.03
2018-09-08T22:10:25.598Z,90.50
2018-09-08T22:12:54.428Z,91.02
2018-09-08T22:15:23.798Z,91.13
2018-09-08T22:17:52.610Z,90.84
2018-09-08T22:20:21.410Z,90.39
2018-09-08T22:22:50.285Z,90.45
2018-09-08T22:25:19.014Z,90.68
2018-09-08T22:27:47.824Z,90.88
2018-09-08T22:30:16.874Z,90.36
2018-09-08T22:32:45.981Z,90.11
2018-09-08T22:35:15.072Z,90.98
2018-09-08T22:37:43.832Z,90.66
2018-09-08T22:40:12.645Z,91.33
2018-09-08T22:42:41.495Z,91.41
2018-09-08T22:45:10.423Z,91.33
2018-09-08T22:47:39.145Z,90.87
2018-09-08T22:50:07.967Z,91.58
2018-09-08T22:52:37.101Z,91.39
2018-09-08T22:55:06.045Z,91.24
2018-09-08T22:57:34.732Z,92.17
2018-09-08T23:00:03.734Z,92.01
2018-09-08T23:02:32.665Z,90.85
2018-09-08T23:05:01.424Z,91.52
2018-09-08T23:07:30.509Z,91.06
2018-09-08T23:09:59.247Z,91.71
2018-09-08T23:12:28.258Z,91.10
2018-09-08T23:14:57.119Z,91.71
2018-09-08T23:17:26.593Z,91.71
2018-09-08T23:19:55.613Z,92.36
2018-09-08T23:22:25.004Z,91.63
2018-09-08T23:24:53.810Z,91.77
2018-09-08T23:27:22.558Z,90.69
2018-09-08T23:29:51.336Z,91.25
2018-09-08T23:32:20.631Z,90.57
2018-09-08T23:34:49.473Z,90.33
2018-09-08T23:37:18.561Z,90.29
2018-09-08T23:39:47.651Z,89.90
2018-09-08T23:42:16.749Z,90.15
2018-09-08T23:44:45.491Z,89.98
2018-09-08T23:47:14.540Z,90.70
2018-09-08T23:49:43.187Z,90.28
2018-09-08T23:52:12.072Z,90.66
2018-09-08T23:54:41.561Z,89.27
2018-09-08T23:57:10.851Z,89.24
